createdAt,value
2023-04-02T00:02:31.597Z,9.15
2023-04-02T00:05:34.313Z,8.98
2023-04-02T00:08:04.108Z,8.99
2023-04-02T00:10:34.904Z,9.04
2023-04-02T00:13:04.865Z,9.24
2023-04-02T00:15:32.828Z,9.16
2023-04-02T00:18:02.747Z,9.18
2023-04-02T00:20:33.551Z,8.97
2023-04-02T00:23:01.203Z,9.03
2023-04-02T00:25:43.064Z,8.93
2023-04-02T00:28:13.783Z,8.91
2023-04-02T00:30:48.547Z,8.81
2023-04-02T00:33:20.615Z,8.98
2023-04-02T00:35:50.427Z,8.64
2023-04-02T00:38:22.031Z,8.99
2023-04-02T00:40:50.931Z,8.93
2023-04-02T00:43:18.441Z,8.87
2023-04-02T00:45:52.422Z,9.08
2023-04-02T00:48:40.383Z,9.03
2023-04-02T00:51:16.861Z,8.79
2023-04-02T00:53:47.444Z,8.87
2023-04-02T00:56:20.665Z,8.81
2023-04-02T00:58:52.951Z,8.53
2023-04-02T01:01:25.062Z,8.17
2023-04-02T01:03:58.979Z,8.43
2023-04-02T01:06:30.814Z,8.31
2023-04-02T01:09:19.631Z,8.37
2023-04-02T01:12:13.047Z,8.56
2023-04-02T01:14:51.018Z,8.41
2023-04-02T01:17:31.843Z,8.42
2023-04-02T01:20:22.582Z,8.34
2023-04-02T01:22:57.776Z,8.54
2023-04-02T01:25:29.815Z,8.34
2023-04-02T01:28:05.565Z,8.43
2023-04-02T01:30:36.866Z,8.24
2023-04-02T01:33:04.914Z,8.46
2023-04-02T01:35:38.404Z,8.52
2023-04-02T01:38:15.214Z,8.54
2023-04-02T01:40:48.249Z,8.54
2023-04-02T01:43:25.875Z,8.27
2023-04-02T01:45:54.763Z,8.36
2023-04-02T01:48:27.433Z,8.29
2023-04-02T01:50:58.366Z,8.35
2023-04-02T01:53:28.619Z,8.33
2023-04-02T01:55:59.308Z,8.43
2023-04-02T01:58:29.329Z,8.15
2023-04-02T02:01:02.557Z,8.12
2023-04-02T02:03:30.794Z,8.34
2023-04-02T02:05:59.468Z,8.34
2023-04-02T02:08:38.250Z,8.06
2023-04-02T02:11:07.164Z,7.66
2023-04-02T02:13:34.679Z,7.68
2023-04-02T02:16:05.590Z,7.84
2023-04-02T02:18:33.897Z,7.89
2023-04-02T02:21:05.831Z,7.95
2023-04-02T02:23:33.670Z,8.06
2023-04-02T02:26:01.209Z,8.00
2023-04-02T02:28:32.180Z,8.16
2023-04-02T02:31:05.523Z,8.18
2023-04-02T02:33:37.857Z,8.18
2023-04-02T02:36:07.846Z,8.07
2023-04-02T02:38:54.661Z,7.99
2023-04-02T02:41:29.168Z,7.80
2023-04-02T02:44:03.318Z,7.82
2023-04-02T02:46:34.710Z,7.59
2023-04-02T02:49:05.241Z,7.42
2023-04-02T02:51:41.723Z,7.76
2023-04-02T02:54:09.589Z,7.85
2023-04-02T02:56:45.802Z,7.67
2023-04-02T02:59:15.872Z,7.68
2023-04-02T03:01:47.317Z,7.54
2023-04-02T03:04:18.494Z,7.64
2023-04-02T03:06:52.611Z,7.59
2023-04-02T03:09:29.161Z,7.57
2023-04-02T03:12:04.166Z,7.69
2023-04-02T03:14:35.328Z,7.55
2023-04-02T03:17:11.654Z,7.52
2023-04-02T03:19:44.733Z,7.58
2023-04-02T03:22:16.938Z,7.59
2023-04-02T03:24:54.723Z,7.31
2023-04-02T03:27:27.202Z,7.54
2023-04-02T03:30:04.955Z,7.51
2023-04-02T03:32:38.879Z,7.52
2023-04-02T03:35:20.573Z,7.36
2023-04-02T03:37:53.998Z,7.41
2023-04-02T03:40:26.556Z,7.30
2023-04-02T03:42:59.563Z,7.35
2023-04-02T03:45:33.057Z,7.22
2023-04-02T03:48:06.330Z,7.26
2023-04-02T03:50:39.395Z,7.25
2023-04-02T03:53:06.932Z,7.49
2023-04-02T03:55:37.817Z,7.17
2023-04-02T03:58:09.770Z,7.17
2023-04-02T04:00:42.014Z,7.18
2023-04-02T04:03:15.323Z,7.29
2023-04-02T04:05:49.682Z,7.29
2023-04-02T04:08:20.343Z,7.28
2023-04-02T04:10:52.633Z,7.30
2023-04-02T04:13:29.849Z,7.02
2023-04-02T04:16:01.858Z,6.80
2023-04-02T04:18:37.734Z,7.04
2023-04-02T04:21:12.044Z,6.97
2023-04-02T04:23:41.019Z,7.04
2023-04-02T04:26:21.001Z,7.07
2023-04-02T04:28:58.275Z,7.16
2023-04-02T04:31:33.878Z,7.21
2023-04-02T04:34:09.550Z,6.86
2023-04-02T04:36:53.854Z,7.02
2023-04-02T04:39:29.609Z,6.94
2023-04-02T04:42:00.480Z,7.12
2023-04-02T04:44:40.835Z,6.92
2023-04-02T04:47:14.857Z,7.05
2023-04-02T04:49:48.550Z,6.90
2023-04-02T04:52:19.858Z,6.99
2023-04-02T04:54:48.095Z,7.08
2023-04-02T04:57:28.136Z,6.97
2023-04-02T05:00:01.955Z,7.08
2023-04-02T05:02:35.053Z,7.01
2023-04-02T05:05:04.897Z,6.83
2023-04-02T05:07:36.915Z,7.00
2023-04-02T05:10:12.291Z,6.96
2023-04-02T05:12:42.894Z,6.59
2023-04-02T05:15:16.814Z,6.49
2023-04-02T05:17:51.075Z,6.51
2023-04-02T05:20:24.374Z,6.66
2023-04-02T05:22:56.911Z,6.63
2023-04-02T05:25:27.005Z,6.60
2023-04-02T05:28:00.302Z,6.36
2023-04-02T05:30:41.756Z,6.49
2023-04-02T05:33:22.350Z,6.50
2023-04-02T05:35:57.345Z,6.75
2023-04-02T05:38:28.418Z,6.83
2023-04-02T05:41:01.891Z,6.62
2023-04-02T05:43:32.852Z,6.74
2023-04-02T05:46:07.738Z,6.64
2023-04-02T05:48:39.250Z,6.78
2023-04-02T05:51:12.887Z,6.58
2023-04-02T05:53:46.103Z,6.33
2023-04-02T05:56:19.394Z,6.40
2023-04-02T05:58:50.113Z,6.51
2023-04-02T06:01:26.000Z,6.37
2023-04-02T06:03:59.626Z,6.65
2023-04-02T06:06:43.619Z,6.73
2023-04-02T06:09:15.247Z,6.74
2023-04-02T06:11:47.083Z,6.49
2023-04-02T06:14:16.979Z,6.63
2023-04-02T06:16:46.281Z,6.93
2023-04-02T06:19:20.018Z,6.88
2023-04-02T06:21:52.746Z,6.80
2023-04-02T06:24:26.521Z,6.67
2023-04-02T06:26:59.788Z,6.43
2023-04-02T06:29:33.881Z,6.48
2023-04-02T06:32:02.942Z,6.43
2023-04-02T06:34:32.080Z,6.63
2023-04-02T06:37:03.339Z,6.65
2023-04-02T06:39:31.733Z,6.78
2023-04-02T06:42:02.523Z,6.70
2023-04-02T06:44:34.905Z,6.60
2023-04-02T06:47:07.934Z,6.52
2023-04-02T06:49:42.489Z,6.31
2023-04-02T06:52:19.130Z,6.25
2023-04-02T06:54:47.257Z,6.34
2023-04-02T06:57:15.151Z,6.52
2023-04-02T06:59:42.643Z,6.43
2023-04-02T07:02:25.742Z,6.68
2023-04-02T07:04:54.407Z,6.59
2023-04-02T07:07:23.205Z,6.57
2023-04-02T07:09:51.183Z,6.77
2023-04-02T07:12:23.563Z,6.66
2023-04-02T07:14:51.075Z,6.61
2023-04-02T07:17:19.291Z,6.60
2023-04-02T07:19:49.439Z,6.29
2023-04-02T07:22:18.152Z,6.15
2023-04-02T07:24:47.708Z,6.28
2023-04-02T07:27:15.670Z,6.35
2023-04-02T07:29:43.458Z,6.53
2023-04-02T07:32:11.873Z,6.28
2023-04-02T07:34:39.672Z,6.25
2023-04-02T07:37:07.136Z,6.53
2023-04-02T07:39:37.210Z,6.60
2023-04-02T07:42:07.913Z,6.63
2023-04-02T07:44:35.351Z,6.68
2023-04-02T07:47:02.875Z,6.65
2023-04-02T07:49:30.592Z,6.57
2023-04-02T07:51:58.032Z,6.39
2023-04-02T07:54:27.126Z,6.58
2023-04-02T07:56:54.692Z,6.54
2023-04-02T07:59:23.515Z,6.27
2023-04-02T08:01:52.797Z,6.43
2023-04-02T08:04:22.053Z,6.72
2023-04-02T08:06:50.447Z,6.67
2023-04-02T08:09:18.289Z,6.89
2023-04-02T08:11:46.569Z,6.97
2023-04-02T08:14:14.691Z,6.74
2023-04-02T08:16:48.288Z,6.47
2023-04-02T08:19:16.383Z,6.41
2023-04-02T08:21:43.887Z,6.56
2023-04-02T08:24:11.359Z,6.52
2023-04-02T08:26:38.909Z,6.47
2023-04-02T08:29:06.386Z,6.59
2023-04-02T08:31:33.858Z,6.52
2023-04-02T08:34:03.269Z,6.61
2023-04-02T08:36:34.620Z,6.67
2023-04-02T08:39:02.503Z,6.63
2023-04-02T08:41:32.102Z,6.50
2023-04-02T08:44:19.241Z,6.42
2023-04-02T08:46:51.946Z,6.64
2023-04-02T08:49:27.274Z,6.64
2023-04-02T08:51:54.570Z,6.85
2023-04-02T08:54:27.371Z,6.83
2023-04-02T08:56:59.975Z,6.80
2023-04-02T08:59:33.670Z,6.84
2023-04-02T09:02:21.342Z,7.05
2023-04-02T09:04:50.939Z,7.03
2023-04-02T09:07:19.355Z,6.90
2023-04-02T09:09:49.764Z,6.85
2023-04-02T09:12:19.731Z,7.13
2023-04-02T09:14:56.378Z,7.33
2023-04-02T09:17:25.243Z,7.29
2023-04-02T09:19:58.116Z,7.04
2023-04-02T09:22:28.094Z,6.89
2023-04-02T09:24:57.317Z,6.78
2023-04-02T09:27:27.277Z,6.72
2023-04-02T09:30:00.665Z,7.10
2023-04-02T09:32:46.666Z,7.03
2023-04-02T09:35:26.234Z,6.94
2023-04-02T09:38:30.534Z,6.93
2023-04-02T09:41:01.447Z,6.88
2023-04-02T09:43:30.645Z,6.91
2023-04-02T09:46:00.767Z,7.12
2023-04-02T09:48:31.676Z,7.38
2023-04-02T09:51:15.230Z,7.36
2023-04-02T09:53:44.712Z,7.59
2023-04-02T09:56:17.746Z,7.65
2023-04-02T09:58:47.179Z,7.47
2023-04-02T10:01:30.215Z,7.61
2023-04-02T10:03:59.236Z,7.50
2023-04-02T10:06:30.095Z,7.47
2023-04-02T10:08:58.599Z,7.70
2023-04-02T10:11:36.572Z,7.58
2023-04-02T10:14:19.012Z,7.96
2023-04-02T10:16:51.475Z,8.14
2023-04-02T10:19:28.008Z,8.14
2023-04-02T10:21:59.813Z,8.05
2023-04-02T10:24:28.794Z,8.02
2023-04-02T10:27:10.333Z,7.99
2023-04-02T10:30:05.728Z,8.04
2023-04-02T10:32:39.945Z,8.04
2023-04-02T10:35:16.581Z,7.95
2023-04-02T10:38:07.030Z,7.87
2023-04-02T10:40:36.742Z,8.07
2023-04-02T10:43:35.503Z,7.98
2023-04-02T10:46:09.276Z,8.21
2023-04-02T10:48:46.856Z,8.05
2023-04-02T10:51:29.449Z,8.26
2023-04-02T10:54:12.016Z,8.34
2023-04-02T10:56:49.905Z,8.67
2023-04-02T10:59:23.451Z,8.66
2023-04-02T11:01:53.497Z,8.69
2023-04-02T11:04:24.824Z,8.40
2023-04-02T11:07:07.296Z,8.45
2023-04-02T11:09:44.687Z,8.48
2023-04-02T11:12:22.706Z,8.61
2023-04-02T11:14:52.465Z,8.45
2023-04-02T11:17:20.694Z,8.32
2023-04-02T11:19:48.224Z,8.14
2023-04-02T11:22:17.273Z,8.59
2023-04-02T11:24:48.268Z,8.82
2023-04-02T11:27:23.927Z,9.13
2023-04-02T11:29:54.857Z,9.08
2023-04-02T11:32:32.430Z,8.76
2023-04-02T11:35:40.621Z,9.12
2023-04-02T11:38:52.357Z,9.33
2023-04-02T11:41:57.776Z,9.15
2023-04-02T11:44:26.526Z,9.27
2023-04-02T11:46:53.980Z,9.23
2023-04-02T11:49:41.786Z,9.11
2023-04-02T11:52:25.219Z,9.38
2023-04-02T11:55:01.248Z,9.42
2023-04-02T11:57:51.466Z,8.93
2023-04-02T12:00:48.166Z,9.07
2023-04-02T12:03:32.191Z,9.23
2023-04-02T12:06:06.221Z,8.60
2023-04-02T12:08:57.560Z,8.91
2023-04-02T12:11:34.570Z,8.82
2023-04-02T12:14:02.812Z,9.12
2023-04-02T12:16:34.221Z,9.06
2023-04-02T12:19:02.005Z,8.98
2023-04-02T12:21:30.518Z,9.17
2023-04-02T12:24:00.274Z,8.83
2023-04-02T12:26:36.987Z,9.01
2023-04-02T12:29:24.637Z,9.06
2023-04-02T12:31:54.588Z,8.82
2023-04-02T12:34:24.132Z,8.73
2023-04-02T12:36:53.917Z,8.65
2023-04-02T12:39:21.660Z,8.75
2023-04-02T12:41:49.106Z,8.70
2023-04-02T12:44:18.890Z,8.74
2023-04-02T12:46:47.790Z,8.65
2023-04-02T12:49:30.436Z,8.84
2023-04-02T12:51:58.461Z,8.80
2023-04-02T12:54:26.009Z,8.84
2023-04-02T12:56:54.114Z,8.96
2023-04-02T12:59:30.958Z,8.82
2023-04-02T13:02:00.154Z,9.15
2023-04-02T13:04:29.139Z,9.10
2023-04-02T13:06:57.297Z,9.15
2023-04-02T13:09:32.028Z,9.25
2023-04-02T13:12:00.200Z,9.08
2023-04-02T13:14:28.842Z,9.34
2023-04-02T13:16:57.102Z,9.61
2023-04-02T13:19:31.661Z,9.52
2023-04-02T13:22:00.984Z,9.55
2023-04-02T13:24:31.067Z,9.01
2023-04-02T13:27:00.962Z,9.35
2023-04-02T13:29:30.434Z,9.28
2023-04-02T13:31:59.886Z,9.20
2023-04-02T13:34:28.203Z,9.47
2023-04-02T13:36:58.155Z,9.45
2023-04-02T13:39:27.026Z,9.54
2023-04-02T13:41:57.816Z,9.63
2023-04-02T13:44:27.820Z,9.77
2023-04-02T13:46:56.324Z,9.49
2023-04-02T13:49:24.948Z,9.49
2023-04-02T13:51:55.003Z,9.76
2023-04-02T13:54:29.415Z,9.98
2023-04-02T13:56:57.345Z,9.98
2023-04-02T13:59:25.935Z,9.71
2023-04-02T14:01:57.453Z,9.99
2023-04-02T14:04:29.041Z,9.81
2023-04-02T14:07:18.302Z,10.23
2023-04-02T14:10:00.724Z,10.25
2023-04-02T14:12:41.234Z,10.16
2023-04-02T14:15:33.582Z,9.88
2023-04-02T14:18:30.777Z,10.19
2023-04-02T14:21:09.682Z,10.07
2023-04-02T14:23:54.989Z,10.07
2023-04-02T14:26:39.295Z,10.00
2023-04-02T14:29:15.259Z,9.89
2023-04-02T14:31:47.630Z,9.86
2023-04-02T14:34:22.462Z,10.01
2023-04-02T14:37:00.832Z,9.93
2023-04-02T14:39:40.061Z,10.48
2023-04-02T14:42:14.337Z,11.03
2023-04-02T14:44:47.406Z,10.64
2023-04-02T14:47:19.381Z,10.84
2023-04-02T14:49:54.457Z,10.50
2023-04-02T14:52:24.910Z,10.99
2023-04-02T14:54:56.279Z,10.88
2023-04-02T14:57:28.703Z,10.92
2023-04-02T15:00:01.597Z,11.09
2023-04-02T15:02:37.357Z,11.06
2023-04-02T15:05:12.504Z,10.50
2023-04-02T15:07:44.579Z,10.28
2023-04-02T15:10:22.920Z,10.86
2023-04-02T15:12:53.223Z,10.83
2023-04-02T15:15:39.066Z,10.94
2023-04-02T15:18:11.965Z,11.18
2023-04-02T15:20:46.903Z,11.30
2023-04-02T15:23:23.931Z,11.27
2023-04-02T15:26:03.321Z,11.22
2023-04-02T15:28:38.517Z,11.35
2023-04-02T15:31:07.792Z,11.17
2023-04-02T15:33:42.219Z,10.80
2023-04-02T15:36:31.393Z,10.69
2023-04-02T15:39:05.141Z,10.88
2023-04-02T15:41:41.533Z,10.78
2023-04-02T15:44:15.268Z,10.88
2023-04-02T15:46:50.381Z,10.96
2023-04-02T15:49:33.082Z,11.03
2023-04-02T15:52:06.402Z,10.80
2023-04-02T15:54:52.574Z,10.68
2023-04-02T15:57:35.628Z,10.85
2023-04-02T16:00:16.145Z,10.74
2023-04-02T16:03:12.314Z,10.43
2023-04-02T16:05:50.026Z,10.49
2023-04-02T16:08:31.796Z,10.22
2023-04-02T16:10:59.432Z,9.75
2023-04-02T16:13:31.529Z,9.74
2023-04-02T16:16:05.796Z,9.59
2023-04-02T16:18:56.626Z,9.65
2023-04-02T16:21:29.960Z,9.94
2023-04-02T16:23:57.471Z,9.62
2023-04-02T16:26:35.285Z,9.63
2023-04-02T16:29:16.806Z,9.74
2023-04-02T16:31:51.813Z,9.92
2023-04-02T16:34:30.423Z,9.74
2023-04-02T16:37:07.104Z,9.51
2023-04-02T16:39:40.728Z,9.76
2023-04-02T16:42:24.261Z,9.71
2023-04-02T16:45:03.855Z,9.60
2023-04-02T16:47:49.560Z,9.41
2023-04-02T16:50:27.767Z,9.49
2023-04-02T16:53:03.059Z,9.33
2023-04-02T16:55:36.104Z,9.27
2023-04-02T16:58:14.968Z,9.19
2023-04-02T17:00:49.453Z,9.09
2023-04-02T17:03:39.675Z,8.77
2023-04-02T17:06:09.879Z,8.82
2023-04-02T17:08:43.831Z,9.07
2023-04-02T17:11:22.213Z,8.96
2023-04-02T17:14:05.626Z,9.00
2023-04-02T17:16:37.997Z,8.92
2023-04-02T17:19:11.404Z,8.91
2023-04-02T17:21:42.090Z,8.91
2023-04-02T17:24:21.189Z,9.00
2023-04-02T17:26:52.369Z,8.79
2023-04-02T17:29:24.410Z,8.46
2023-04-02T17:31:54.661Z,8.47
2023-04-02T17:34:24.163Z,8.25
2023-04-02T17:37:03.081Z,8.31
2023-04-02T17:39:39.173Z,8.17
2023-04-02T17:42:15.281Z,8.19
2023-04-02T17:44:57.127Z,8.32
2023-04-02T17:47:29.521Z,8.09
2023-04-02T17:50:22.263Z,8.00
2023-04-02T17:52:56.045Z,8.00
2023-04-02T17:55:37.682Z,7.98
2023-04-02T17:58:19.055Z,8.07
2023-04-02T18:00:58.878Z,8.17
2023-04-02T18:03:50.704Z,8.23
2023-04-02T18:06:22.732Z,8.07
2023-04-02T18:09:04.141Z,7.94
2023-04-02T18:11:41.017Z,7.92
2023-04-02T18:14:28.111Z,7.72
2023-04-02T18:17:02.785Z,7.70
2023-04-02T18:19:38.642Z,7.87
2023-04-02T18:22:15.708Z,7.56
2023-04-02T18:25:10.098Z,7.36
2023-04-02T18:27:56.011Z,7.03
2023-04-02T18:30:29.173Z,7.34
2023-04-02T18:33:11.972Z,7.43
2023-04-02T18:35:47.208Z,7.20
2023-04-02T18:38:24.508Z,6.69
2023-04-02T18:41:06.783Z,7.03
2023-04-02T18:43:43.683Z,7.45
2023-04-02T18:46:22.338Z,7.12
2023-04-02T18:48:56.809Z,7.19
2023-04-02T18:51:27.017Z,6.95
2023-04-02T18:54:03.673Z,7.09
2023-04-02T18:56:32.531Z,7.31
2023-04-02T18:59:12.853Z,7.08
2023-04-02T19:01:44.378Z,6.98
2023-04-02T19:04:17.890Z,6.66
2023-04-02T19:06:49.212Z,6.35
2023-04-02T19:09:23.145Z,6.57
2023-04-02T19:11:52.827Z,6.33
2023-04-02T19:14:23.121Z,6.53
2023-04-02T19:17:08.679Z,6.18
2023-04-02T19:19:42.253Z,6.03
2023-04-02T19:22:16.783Z,6.28
2023-04-02T19:25:11.493Z,6.39
2023-04-02T19:27:51.266Z,6.07
2023-04-02T19:30:39.376Z,6.33
2023-04-02T19:33:16.325Z,5.86
2023-04-02T19:35:48.767Z,5.80
2023-04-02T19:38:40.448Z,5.88
2023-04-02T19:41:17.761Z,5.60
2023-04-02T19:43:45.361Z,5.25
2023-04-02T19:46:12.909Z,5.28
2023-04-02T19:48:48.514Z,5.37
2023-04-02T19:51:16.061Z,5.30
2023-04-02T19:53:43.565Z,4.97
2023-04-02T19:56:12.368Z,5.11
2023-04-02T19:58:39.822Z,5.01
2023-04-02T20:01:07.562Z,4.76
2023-04-02T20:03:35.271Z,4.66
2023-04-02T20:06:02.802Z,4.13
2023-04-02T20:08:30.891Z,3.73
2023-04-02T20:10:59.923Z,3.48
2023-04-02T20:13:28.911Z,3.27
2023-04-02T20:15:59.883Z,3.21
2023-04-02T20:18:27.831Z,3.07
2023-04-02T20:20:55.332Z,2.85
2023-04-02T20:23:22.811Z,2.79
2023-04-02T20:25:53.022Z,2.77
2023-04-02T20:28:20.803Z,2.71
2023-04-02T20:30:50.578Z,2.64
2023-04-02T20:33:18.765Z,2.50
2023-04-02T20:35:46.463Z,2.46
2023-04-02T20:38:14.013Z,2.44
2023-04-02T20:40:42.416Z,2.36
2023-04-02T20:43:10.908Z,2.39
2023-04-02T20:45:38.925Z,2.27
2023-04-02T20:48:08.115Z,2.25
2023-04-02T20:50:36.136Z,2.26
2023-04-02T20:53:03.828Z,2.28
2023-04-02T20:55:31.393Z,2.34
2023-04-02T20:57:58.835Z,2.17
2023-04-02T21:00:26.303Z,2.49
2023-04-02T21:02:53.795Z,2.46
2023-04-02T21:05:22.639Z,2.25
2023-04-02T21:07:50.144Z,2.19
2023-04-02T21:10:17.914Z,2.13
2023-04-02T21:12:45.496Z,2.19
2023-04-02T21:15:13.416Z,2.09
2023-04-02T21:17:40.995Z,2.04
2023-04-02T21:20:10.765Z,2.03
2023-04-02T21:22:40.340Z,1.97
2023-04-02T21:25:08.561Z,2.10
2023-04-02T21:27:36.194Z,2.13
2023-04-02T21:30:04.109Z,2.41
2023-04-02T21:32:31.616Z,2.77
2023-04-02T21:34:59.154Z,2.35
2023-04-02T21:37:26.603Z,2.06
2023-04-02T21:39:55.417Z,2.31
2023-04-02T21:42:23.044Z,2.45
2023-04-02T21:44:50.907Z,2.13
2023-04-02T21:47:18.400Z,1.89
2023-04-02T21:49:45.913Z,1.62
2023-04-02T21:52:13.394Z,1.49
2023-04-02T21:54:40.991Z,1.82
2023-04-02T21:57:09.928Z,1.65
2023-04-02T21:59:37.441Z,1.58
2023-04-02T22:02:05.705Z,1.66
2023-04-02T22:04:33.271Z,1.59
2023-04-02T22:07:01.034Z,1.54
2023-04-02T22:09:29.431Z,1.53
2023-04-02T22:11:59.512Z,1.49
2023-04-02T22:14:29.105Z,1.45
2023-04-02T22:16:58.706Z,1.52
2023-04-02T22:19:26.520Z,1.53
2023-04-02T22:21:54.041Z,1.39
2023-04-02T22:24:22.542Z,1.40
2023-04-02T22:26:50.535Z,1.49
2023-04-02T22:29:18.049Z,1.42
2023-04-02T22:31:47.056Z,1.52
2023-04-02T22:34:14.878Z,1.65
2023-04-02T22:36:42.384Z,1.35
2023-04-02T22:39:12.025Z,1.13
2023-04-02T22:41:39.574Z,1.47
2023-04-02T22:44:07.072Z,1.40
2023-04-02T22:46:35.550Z,1.38
2023-04-02T22:49:05.678Z,1.25
2023-04-02T22:51:33.106Z,1.09
2023-04-02T22:54:00.519Z,1.25
2023-04-02T22:56:32.755Z,1.00
2023-04-02T22:59:00.707Z,1.11
2023-04-02T23:01:32.069Z,1.06
2023-04-02T23:04:00.492Z,1.00
2023-04-02T23:06:29.522Z,1.07
2023-04-02T23:08:58.294Z,0.89
2023-04-02T23:11:27.751Z,1.00
2023-04-02T23:13:57.156Z,1.20
2023-04-02T23:16:27.481Z,1.45
2023-04-02T23:18:55.906Z,1.25
2023-04-02T23:21:24.307Z,0.98
2023-04-02T23:23:53.510Z,1.09
2023-04-02T23:26:23.087Z,0.97
2023-04-02T23:28:51.184Z,0.87
2023-04-02T23:31:20.385Z,1.04
2023-04-02T23:33:47.906Z,1.14
2023-04-02T23:36:21.481Z,1.11
2023-04-02T23:38:48.952Z,1.16
2023-04-02T23:41:18.296Z,1.08
2023-04-02T23:43:45.829Z,1.04
2023-04-02T23:46:13.317Z,1.17
2023-04-02T23:48:41.124Z,0.94
2023-04-02T23:51:08.887Z,0.91
2023-04-02T23:53:36.347Z,0.89
2023-04-02T23:56:04.227Z,1.15
2023-04-02T23:58:33.037Z,1.16
